Time;durP1;ratioP1;P1;durP2;ratioP2;P2;SDS_P1;SDS_P2;PMS_P1;PMS_P2;Temp;Humidity;BMP_temperature;BMP_pressure;BME280_temperature;BME280_humidity;BME280_pressure;Samples;Min_cycle;Max_cycle;Signal;HPM_P1;HPM_P2
2023/01/23 00:01:13;;;;;;;0.60;0.60;;;;;;;;;;6207534;23;20194;-75
2023/01/23 00:03:41;;;;;;;0.63;0.60;;;;;;;;;;6184390;23;20157;-74
2023/01/23 00:06:10;;;;;;;0.70;0.70;;;;;;;;;;6184238;23;20154;-76
2023/01/23 00:08:38;;;;;;;3.25;1.30;;;;;;;;;;6184340;23;20158;-76
2023/01/23 00:11:06;;;;;;;0.73;0.73;;;;;;;;;;6207649;23;20162;-76
2023/01/23 00:13:33;;;;;;;0.70;0.70;;;;;;;;;;6182717;23;20649;-74
2023/01/23 00:16:02;;;;;;;1.30;1.20;;;;;;;;;;6182621;23;20202;-76
2023/01/23 00:18:30;;;;;;;0.65;0.60;;;;;;;;;;6182617;23;20166;-76
2023/01/23 00:20:57;;;;;;;0.60;0.60;;;;;;;;;;6183277;23;20184;-75
2023/01/23 00:23:25;;;;;;;0.70;0.60;;;;;;;;;;6157318;23;20174;-75
2023/01/23 00:25:52;;;;;;;0.70;0.70;;;;;;;;;;6182695;23;20543;-74
2023/01/23 00:28:19;;;;;;;0.70;0.60;;;;;;;;;;6184085;23;20157;-74
2023/01/23 00:30:46;;;;;;;0.60;0.60;;;;;;;;;;6207378;23;20589;-75
2023/01/23 00:33:14;;;;;;;0.70;0.60;;;;;;;;;;6157603;23;20215;-76
2023/01/23 00:35:41;;;;;;;0.70;0.60;;;;;;;;;;6182477;23;20532;-76
2023/01/23 00:38:08;;;;;;;1.60;1.50;;;;;;;;;;6207868;23;20170;-76
2023/01/23 00:40:36;;;;;;;0.60;0.60;;;;;;;;;;6206949;23;20200;-73
2023/01/23 00:43:05;;;;;;;0.60;0.60;;;;;;;;;;6156367;23;20618;-74
2023/01/23 00:45:32;;;;;;;2.25;1.77;;;;;;;;;;6157628;23;20220;-74
2023/01/23 00:47:59;;;;;;;0.60;0.60;;;;;;;;;;6157458;23;20202;-74
2023/01/23 00:50:26;;;;;;;0.63;0.63;;;;;;;;;;6182118;23;20289;-74
2023/01/23 00:52:53;;;;;;;0.70;0.70;;;;;;;;;;6157251;23;20196;-75
2023/01/23 00:55:21;;;;;;;0.60;0.60;;;;;;;;;;6182487;23;20566;-74
2023/01/23 00:57:49;;;;;;;0.70;0.60;;;;;;;;;;6157196;23;20170;-76
2023/01/23 01:00:17;;;;;;;0.98;0.98;;;;;;;;;;6207263;23;20178;-76
2023/01/23 01:02:45;;;;;;;0.80;0.80;;;;;;;;;;6157661;23;20229;-74
2023/01/23 01:05:12;;;;;;;0.60;0.60;;;;;;;;;;6183742;23;20194;-74
2023/01/23 01:07:39;;;;;;;0.60;0.60;;;;;;;;;;6182430;23;20186;-75
2023/01/23 01:10:06;;;;;;;0.80;0.80;;;;;;;;;;6184238;23;20239;-75
2023/01/23 01:12:35;;;;;;;0.70;0.70;;;;;;;;;;6157717;23;20170;-74
2023/01/23 01:15:05;;;;;;;0.60;0.60;;;;;;;;;;6183949;23;20170;-75
2023/01/23 01:17:32;;;;;;;0.70;0.70;;;;;;;;;;6183540;23;20472;-74
2023/01/23 01:19:59;;;;;;;0.60;0.60;;;;;;;;;;6184101;23;20182;-75
2023/01/23 01:22:26;;;;;;;0.60;0.60;;;;;;;;;;6207077;23;20178;-75
2023/01/23 01:24:53;;;;;;;0.60;0.60;;;;;;;;;;6157463;23;20163;-76
2023/01/23 01:27:21;;;;;;;0.60;0.60;;;;;;;;;;6207219;23;20170;-74
2023/01/23 01:29:48;;;;;;;0.60;0.60;;;;;;;;;;6184041;23;20154;-75
2023/01/23 01:32:16;;;;;;;0.70;0.70;;;;;;;;;;6182987;23;20233;-74
2023/01/23 01:34:46;;;;;;;0.65;0.60;;;;;;;;;;6183950;23;20197;-74
2023/01/23 01:37:14;;;;;;;0.65;0.60;;;;;;;;;;6208864;23;20173;-76
2023/01/23 01:39:42;;;;;;;0.70;0.70;;;;;;;;;;6184218;23;20225;-75
2023/01/23 01:42:09;;;;;;;0.70;0.70;;;;;;;;;;6208464;23;20216;-76
2023/01/23 01:44:50;;;;;;;0.60;0.60;;;;;;;;;;6158660;23;20171;-75
2023/01/23 01:47:19;;;;;;;1.13;1.02;;;;;;;;;;6208916;23;20176;-74
2023/01/23 01:49:47;;;;;;;1.33;1.13;;;;;;;;;;6159443;23;20257;-76
2023/01/23 01:52:14;;;;;;;0.70;0.70;;;;;;;;;;6185486;23;20234;-74
2023/01/23 01:54:42;;;;;;;0.60;0.60;;;;;;;;;;6158770;23;20174;-75
2023/01/23 01:57:10;;;;;;;0.70;0.70;;;;;;;;;;6158696;23;20569;-73
2023/01/23 01:59:39;;;;;;;0.60;0.60;;;;;;;;;;6184036;23;20170;-76
2023/01/23 02:02:09;;;;;;;0.60;0.60;;;;;;;;;;6183777;23;20190;-73
2023/01/23 02:04:41;;;;;;;0.70;0.70;;;;;;;;;;6208804;23;20206;-74
2023/01/23 02:07:10;;;;;;;29.00;1.98;;;;;;;;;;6159135;23;20213;-75
2023/01/23 02:09:37;;;;;;;0.63;0.60;;;;;;;;;;6183984;23;20177;-76
2023/01/23 02:12:05;;;;;;;0.60;0.60;;;;;;;;;;6183780;23;20173;-74
2023/01/23 02:14:32;;;;;;;0.82;0.82;;;;;;;;;;6183443;23;20167;-73
2023/01/23 02:17:05;;;;;;;0.70;0.60;;;;;;;;;;6183617;23;20174;-74
2023/01/23 02:19:43;;;;;;;0.70;0.60;;;;;;;;;;6183505;23;20204;-75
2023/01/23 02:22:19;;;;;;;0.70;0.70;;;;;;;;;;6184851;23;20174;-74
2023/01/23 02:24:57;;;;;;;0.70;0.60;;;;;;;;;;6183870;23;20162;-74
2023/01/23 02:27:29;;;;;;;0.70;0.70;;;;;;;;;;6208946;23;20229;-75
2023/01/23 02:29:59;;;;;;;0.70;0.60;;;;;;;;;;6158812;23;20164;-75
2023/01/23 02:32:31;;;;;;;0.70;0.70;;;;;;;;;;6183600;23;20286;-75
2023/01/23 02:35:02;;;;;;;0.70;0.70;;;;;;;;;;6158518;23;20194;-74
2023/01/23 02:37:34;;;;;;;0.60;0.60;;;;;;;;;;6183572;23;20178;-77
2023/01/23 02:40:31;;;;;;;0.60;0.60;;;;;;;;;;6158719;23;20189;-73
2023/01/23 02:43:06;;;;;;;1.30;1.20;;;;;;;;;;6183258;23;20260;-74
2023/01/23 02:45:53;;;;;;;0.60;0.60;;;;;;;;;;6181244;23;20177;-74
2023/01/23 02:48:27;;;;;;;0.60;0.60;;;;;;;;;;6184675;23;20158;-74
2023/01/23 02:50:59;;;;;;;0.70;0.60;;;;;;;;;;6182305;23;20175;-74
2023/01/23 02:53:31;;;;;;;0.70;0.70;;;;;;;;;;6208380;23;20216;-76
2023/01/23 02:56:06;;;;;;;0.68;0.68;;;;;;;;;;6185296;23;20252;-75
2023/01/23 03:01:27;;;;;;;0.70;0.60;;;;;;;;;;6208116;23;20491;-74
2023/01/23 03:04:03;;;;;;;0.60;0.60;;;;;;;;;;6158193;23;20198;-74
2023/01/23 03:06:35;;;;;;;1.00;1.00;;;;;;;;;;6208458;23;20185;-75
2023/01/23 03:09:06;;;;;;;0.68;0.60;;;;;;;;;;6208242;23;20178;-74
2023/01/23 03:11:39;;;;;;;0.60;0.60;;;;;;;;;;6183550;23;20253;-75
2023/01/23 03:14:14;;;;;;;0.70;0.70;;;;;;;;;;6182306;23;20500;-75
2023/01/23 03:16:50;;;;;;;0.65;0.65;;;;;;;;;;6183319;23;20541;-76
2023/01/23 03:19:30;;;;;;;0.68;0.60;;;;;;;;;;6180783;23;20210;-75
2023/01/23 03:21:59;;;;;;;0.70;0.60;;;;;;;;;;6158352;23;20196;-75
2023/01/23 03:24:31;;;;;;;0.60;0.60;;;;;;;;;;6157944;23;20257;-75
2023/01/23 03:27:06;;;;;;;0.60;0.60;;;;;;;;;;6184830;23;20495;-75
2023/01/23 03:32:38;;;;;;;0.60;0.60;;;;;;;;;;6183034;23;20262;-76
2023/01/23 03:35:12;;;;;;;0.60;0.60;;;;;;;;;;6158049;23;20250;-76
2023/01/23 03:37:45;;;;;;;0.70;0.60;;;;;;;;;;6158199;23;20253;-75
2023/01/23 03:43:05;;;;;;;0.70;0.60;;;;;;;;;;6182796;23;20194;-76
2023/01/23 03:45:45;;;;;;;0.70;0.60;;;;;;;;;;6207910;23;20179;-76
2023/01/23 03:48:15;;;;;;;0.65;0.65;;;;;;;;;;6158266;23;20166;-76
2023/01/23 03:50:47;;;;;;;0.82;0.82;;;;;;;;;;6207776;23;20701;-76
2023/01/23 03:53:23;;;;;;;0.60;0.60;;;;;;;;;;6207992;23;20650;-76
2023/01/23 03:55:54;;;;;;;0.70;0.60;;;;;;;;;;6157522;23;20249;-74
2023/01/23 03:58:26;;;;;;;0.60;0.60;;;;;;;;;;6183009;23;20190;-75
2023/01/23 04:01:20;;;;;;;0.70;0.70;;;;;;;;;;6184518;23;20169;-74
2023/01/23 04:03:50;;;;;;;0.60;0.60;;;;;;;;;;6181296;23;20699;-74
2023/01/23 04:06:18;;;;;;;0.60;0.60;;;;;;;;;;6158338;23;20185;-73
2023/01/23 04:08:46;;;;;;;1.23;1.13;;;;;;;;;;6207034;23;20174;-74
2023/01/23 04:11:14;;;;;;;1.55;1.45;;;;;;;;;;6182418;23;20166;-74
2023/01/23 04:13:41;;;;;;;0.60;0.60;;;;;;;;;;6182953;23;20453;-75
2023/01/23 04:16:08;;;;;;;0.60;0.60;;;;;;;;;;6182847;23;20228;-75
2023/01/23 04:18:37;;;;;;;0.60;0.60;;;;;;;;;;6207681;23;20194;-76
2023/01/23 04:21:04;;;;;;;0.60;0.60;;;;;;;;;;6182599;23;20169;-76
2023/01/23 04:23:33;;;;;;;0.60;0.60;;;;;;;;;;6157427;23;20198;-73
2023/01/23 04:26:01;;;;;;;0.60;0.60;;;;;;;;;;6182584;23;20181;-75
2023/01/23 04:28:29;;;;;;;0.63;0.63;;;;;;;;;;6157898;23;20547;-73
2023/01/23 04:30:57;;;;;;;0.70;0.70;;;;;;;;;;6207460;23;20563;-73
2023/01/23 04:33:29;;;;;;;0.60;0.60;;;;;;;;;;6182140;23;20172;-75
2023/01/23 04:35:59;;;;;;;0.60;0.60;;;;;;;;;;6207599;23;20622;-77
2023/01/23 04:38:29;;;;;;;1.55;1.45;;;;;;;;;;6157220;23;20206;-74
2023/01/23 04:41:09;;;;;;;0.70;0.70;;;;;;;;;;6157561;23;20493;-76
2023/01/23 04:43:36;;;;;;;0.60;0.60;;;;;;;;;;6181891;23;20189;-76
2023/01/23 04:46:08;;;;;;;4.30;1.90;;;;;;;;;;6182674;23;20220;-75
2023/01/23 04:48:57;;;;;;;0.60;0.60;;;;;;;;;;6182316;23;20208;-76
2023/01/23 04:51:26;;;;;;;0.60;0.60;;;;;;;;;;6185022;23;20162;-74
2023/01/23 04:53:54;;;;;;;0.70;0.70;;;;;;;;;;6157349;23;20166;-74
2023/01/23 04:56:22;;;;;;;0.60;0.60;;;;;;;;;;6207794;23;20587;-75
2023/01/23 04:58:52;;;;;;;1.45;1.30;;;;;;;;;;6182025;23;20170;-74
2023/01/23 05:01:22;;;;;;;0.70;0.60;;;;;;;;;;6182024;23;20228;-74
2023/01/23 05:03:53;;;;;;;0.60;0.60;;;;;;;;;;6181989;23;20252;-74
2023/01/23 05:06:20;;;;;;;0.60;0.60;;;;;;;;;;6157598;23;20173;-74
2023/01/23 05:08:50;;;;;;;0.90;0.90;;;;;;;;;;6208970;23;20614;-75
2023/01/23 05:11:26;;;;;;;0.70;0.70;;;;;;;;;;6184821;23;20174;-76
2023/01/23 05:13:54;;;;;;;0.60;0.60;;;;;;;;;;6159416;23;20186;-76
2023/01/23 05:16:22;;;;;;;0.60;0.60;;;;;;;;;;6209413;23;20509;-75
2023/01/23 05:19:12;;;;;;;0.60;0.60;;;;;;;;;;6158904;23;20197;-76
2023/01/23 05:21:40;;;;;;;0.70;0.70;;;;;;;;;;6184196;23;20157;-74
2023/01/23 05:24:20;;;;;;;0.70;0.70;;;;;;;;;;6182327;23;20193;-73
2023/01/23 05:26:48;;;;;;;0.65;0.65;;;;;;;;;;6182940;23;20185;-73
2023/01/23 05:29:17;;;;;;;0.70;0.70;;;;;;;;;;6182762;23;20174;-74
2023/01/23 05:31:55;;;;;;;0.70;0.70;;;;;;;;;;6207349;23;20224;-73
2023/01/23 05:34:41;;;;;;;1.10;1.08;;;;;;;;;;6185417;23;20190;-75
2023/01/23 05:37:24;;;;;;;0.70;0.70;;;;;;;;;;6183844;23;20240;-75
2023/01/23 05:39:57;;;;;;;1.27;1.13;;;;;;;;;;6159162;23;20189;-74
2023/01/23 05:42:29;;;;;;;0.70;0.70;;;;;;;;;;6184234;23;20236;-74
2023/01/23 05:44:57;;;;;;;0.70;0.70;;;;;;;;;;6185990;23;20175;-75
2023/01/23 05:47:36;;;;;;;0.80;0.80;;;;;;;;;;6184296;23;20170;-75
2023/01/23 05:50:06;;;;;;;0.77;0.75;;;;;;;;;;6159220;23;20198;-75
2023/01/23 05:52:35;;;;;;;0.60;0.60;;;;;;;;;;6209276;23;20167;-75
2023/01/23 05:55:05;;;;;;;0.70;0.70;;;;;;;;;;6159339;23;20204;-75
2023/01/23 05:57:33;;;;;;;0.90;0.90;;;;;;;;;;6159439;23;20174;-74
2023/01/23 06:00:37;;;;;;;0.60;0.60;;;;;;;;;;6185463;23;20649;-74
2023/01/23 06:03:28;;;;;;;0.95;0.95;;;;;;;;;;6185240;23;20187;-76
2023/01/23 06:06:07;;;;;;;0.70;0.60;;;;;;;;;;6129844;23;20178;-75
2023/01/23 06:08:34;;;;;;;0.70;0.70;;;;;;;;;;6178856;23;20183;-73
2023/01/23 06:11:03;;;;;;;0.60;0.60;;;;;;;;;;6154437;23;20151;-74
2023/01/23 06:13:31;;;;;;;0.60;0.60;;;;;;;;;;6154150;23;20171;-74
2023/01/23 06:15:58;;;;;;;0.60;0.60;;;;;;;;;;6129576;23;20178;-75
2023/01/23 06:18:25;;;;;;;0.60;0.60;;;;;;;;;;6153809;23;20545;-75
2023/01/23 06:20:56;;;;;;;0.60;0.60;;;;;;;;;;6129253;23;20175;-73
2023/01/23 06:23:22;;;;;;;0.60;0.60;;;;;;;;;;6129461;23;20498;-75
2023/01/23 06:25:49;;;;;;;2.17;1.98;;;;;;;;;;6129089;23;20171;-75
2023/01/23 06:28:18;;;;;;;0.60;0.60;;;;;;;;;;6154063;23;20314;-75
2023/01/23 06:30:46;;;;;;;0.70;0.70;;;;;;;;;;6153762;23;20187;-75
2023/01/23 06:33:22;;;;;;;0.60;0.60;;;;;;;;;;6178754;23;20266;-75
2023/01/23 06:35:55;;;;;;;0.60;0.60;;;;;;;;;;6129066;23;20216;-75
2023/01/23 06:38:23;;;;;;;0.60;0.60;;;;;;;;;;6153553;23;20221;-75
2023/01/23 06:40:51;;;;;;;0.60;0.60;;;;;;;;;;6129346;23;20600;-75
2023/01/23 06:43:28;;;;;;;0.60;0.60;;;;;;;;;;6153807;23;20522;-75
2023/01/23 06:45:57;;;;;;;0.80;0.70;;;;;;;;;;6153434;23;20225;-75
2023/01/23 06:48:24;;;;;;;0.60;0.60;;;;;;;;;;6153499;23;20568;-75
2023/01/23 06:50:51;;;;;;;0.70;0.70;;;;;;;;;;6178453;23;20302;-75
2023/01/23 06:53:19;;;;;;;0.65;0.65;;;;;;;;;;6153903;23;20195;-75
2023/01/23 06:56:07;;;;;;;0.70;0.70;;;;;;;;;;6153129;23;20171;-73
2023/01/23 06:58:37;;;;;;;0.60;0.60;;;;;;;;;;6129046;23;20201;-74
2023/01/23 07:01:09;;;;;;;0.60;0.60;;;;;;;;;;6153821;23;20198;-74
2023/01/23 07:03:56;;;;;;;0.60;0.60;;;;;;;;;;6158617;23;20202;-74
2023/01/23 07:06:23;;;;;;;0.60;0.60;;;;;;;;;;6158963;23;20176;-75
2023/01/23 07:08:49;;;;;;;0.60;0.60;;;;;;;;;;6158817;23;20658;-75
2023/01/23 07:11:16;;;;;;;0.60;0.60;;;;;;;;;;6183511;23;20170;-75
2023/01/23 07:13:45;;;;;;;0.68;0.68;;;;;;;;;;6158976;23;20171;-73
2023/01/23 07:16:14;;;;;;;0.60;0.60;;;;;;;;;;6157942;23;20178;-73
2023/01/23 07:18:41;;;;;;;0.60;0.60;;;;;;;;;;6183234;23;20189;-72
2023/01/23 07:21:09;;;;;;;0.88;0.88;;;;;;;;;;6183414;23;20209;-72
2023/01/23 07:23:37;;;;;;;0.60;0.50;;;;;;;;;;6208229;23;20217;-73
2023/01/23 07:26:08;;;;;;;1.05;1.05;;;;;;;;;;6184756;23;20150;-73
2023/01/23 07:28:35;;;;;;;0.82;0.82;;;;;;;;;;6184862;23;20181;-72
2023/01/23 07:31:04;;;;;;;0.60;0.52;;;;;;;;;;6183052;23;20220;-73
2023/01/23 07:33:31;;;;;;;0.60;0.60;;;;;;;;;;6183917;23;20262;-72
2023/01/23 07:35:58;;;;;;;0.60;0.60;;;;;;;;;;6184495;23;20773;-71
2023/01/23 07:38:25;;;;;;;1.70;1.60;;;;;;;;;;6184823;23;20670;-75
2023/01/23 07:40:51;;;;;;;0.60;0.60;;;;;;;;;;6184609;23;20681;-72
2023/01/23 07:43:18;;;;;;;0.70;0.70;;;;;;;;;;6184094;23;20587;-72
2023/01/23 07:45:46;;;;;;;0.60;0.60;;;;;;;;;;6182711;23;20169;-72
2023/01/23 07:48:14;;;;;;;0.60;0.60;;;;;;;;;;6184443;23;20158;-72
2023/01/23 07:50:42;;;;;;;0.60;0.60;;;;;;;;;;6184190;23;20818;-72
2023/01/23 07:53:09;;;;;;;0.73;0.73;;;;;;;;;;6182507;23;20169;-71
2023/01/23 07:55:36;;;;;;;0.60;0.60;;;;;;;;;;6184436;23;20643;-72
2023/01/23 07:58:03;;;;;;;0.70;0.60;;;;;;;;;;6157988;23;20162;-73
2023/01/23 08:00:30;;;;;;;0.60;0.60;;;;;;;;;;6158405;23;20873;-71
2023/01/23 08:02:58;;;;;;;0.60;0.60;;;;;;;;;;6207777;23;20185;-72
2023/01/23 08:05:27;;;;;;;0.60;0.60;;;;;;;;;;6184131;23;20213;-72
2023/01/23 08:07:54;;;;;;;1.67;1.58;;;;;;;;;;6184295;23;20177;-73
2023/01/23 08:10:38;;;;;;;0.60;0.60;;;;;;;;;;6184446;23;20154;-72
2023/01/23 08:13:04;;;;;;;0.60;0.60;;;;;;;;;;6182845;23;20205;-72
2023/01/23 08:15:32;;;;;;;12.45;2.55;;;;;;;;;;6184338;23;20155;-72
2023/01/23 08:17:58;;;;;;;0.60;0.60;;;;;;;;;;6184814;23;20689;-72
2023/01/23 08:20:27;;;;;;;0.63;0.63;;;;;;;;;;6184126;23;20183;-74
2023/01/23 08:22:56;;;;;;;0.70;0.60;;;;;;;;;;6206559;23;20178;-74
2023/01/23 08:25:22;;;;;;;0.60;0.60;;;;;;;;;;6157512;23;20173;-74
2023/01/23 08:27:49;;;;;;;0.65;0.65;;;;;;;;;;6184501;23;20238;-73
2023/01/23 08:30:18;;;;;;;0.60;0.60;;;;;;;;;;6184858;23;20182;-72
2023/01/23 08:32:46;;;;;;;0.60;0.60;;;;;;;;;;6182733;23;20150;-72
2023/01/23 08:35:14;;;;;;;0.60;0.60;;;;;;;;;;6207729;23;20220;-73
2023/01/23 08:37:42;;;;;;;0.70;0.70;;;;;;;;;;6184211;23;20147;-72
2023/01/23 08:40:09;;;;;;;2.47;2.28;;;;;;;;;;6182567;23;20204;-74
2023/01/23 08:42:36;;;;;;;0.70;0.70;;;;;;;;;;6183221;23;20245;-71
2023/01/23 08:45:04;;;;;;;6.30;2.65;;;;;;;;;;6183934;23;20187;-73
2023/01/23 08:47:35;;;;;;;0.60;0.60;;;;;;;;;;6183516;23;21006;-74
2023/01/23 08:50:02;;;;;;;0.70;0.70;;;;;;;;;;6183774;23;20623;-72
2023/01/23 08:52:30;;;;;;;0.60;0.60;;;;;;;;;;6182297;23;20217;-74
2023/01/23 08:54:59;;;;;;;0.60;0.60;;;;;;;;;;6183896;23;20645;-72
2023/01/23 08:57:27;;;;;;;0.60;0.60;;;;;;;;;;6181080;23;20165;-72
2023/01/23 09:00:13;;;;;;;2.05;1.13;;;;;;;;;;6182260;23;20199;-72
2023/01/23 09:02:40;;;;;;;0.70;0.70;;;;;;;;;;6181750;23;20583;-72
2023/01/23 09:05:25;;;;;;;0.70;0.70;;;;;;;;;;6181846;23;20449;-72
2023/01/23 09:07:53;;;;;;;0.60;0.60;;;;;;;;;;6183271;23;20394;-72
2023/01/23 09:10:22;;;;;;;0.68;0.68;;;;;;;;;;6157643;23;20167;-74
2023/01/23 09:12:49;;;;;;;0.60;0.60;;;;;;;;;;6182689;23;20189;-74
2023/01/23 09:15:16;;;;;;;0.60;0.60;;;;;;;;;;6183908;23;20177;-72
2023/01/23 09:17:43;;;;;;;0.70;0.60;;;;;;;;;;6157681;23;20421;-73
2023/01/23 09:20:10;;;;;;;0.70;0.70;;;;;;;;;;6183606;23;20416;-72
2023/01/23 09:22:36;;;;;;;0.70;0.60;;;;;;;;;;6183435;23;20381;-73
2023/01/23 09:25:06;;;;;;;0.60;0.60;;;;;;;;;;6182095;23;20190;-73
2023/01/23 09:27:57;;;;;;;0.70;0.60;;;;;;;;;;6184153;23;20687;-72
2023/01/23 09:30:24;;;;;;;0.60;0.60;;;;;;;;;;6207544;23;20176;-73
2023/01/23 09:32:52;;;;;;;0.70;0.60;;;;;;;;;;6182588;23;20424;-73
2023/01/23 09:35:18;;;;;;;0.60;0.60;;;;;;;;;;6183895;23;20410;-73
2023/01/23 09:38:02;;;;;;;2.37;2.20;;;;;;;;;;6183745;23;20389;-72
2023/01/23 09:40:29;;;;;;;0.60;0.60;;;;;;;;;;6183639;23;20483;-72
2023/01/23 09:43:01;;;;;;;0.70;0.60;;;;;;;;;;6183057;23;20401;-74
2023/01/23 09:45:28;;;;;;;0.60;0.60;;;;;;;;;;6207346;23;20487;-73
2023/01/23 09:47:58;;;;;;;0.70;0.70;;;;;;;;;;6182384;23;20390;-74
2023/01/23 09:50:27;;;;;;;0.80;0.80;;;;;;;;;;6182314;23;20476;-73
2023/01/23 09:52:56;;;;;;;0.60;0.60;;;;;;;;;;6184052;23;20393;-71
2023/01/23 09:55:30;;;;;;;0.70;0.70;;;;;;;;;;6184090;23;20422;-72
2023/01/23 09:58:02;;;;;;;0.70;0.70;;;;;;;;;;6185638;23;20392;-73
2023/01/23 10:00:30;;;;;;;0.70;0.60;;;;;;;;;;6185028;23;20587;-73
2023/01/23 10:03:00;;;;;;;0.70;0.60;;;;;;;;;;6185560;23;20387;-74
2023/01/23 10:05:30;;;;;;;0.63;0.60;;;;;;;;;;6185097;23;20440;-71
2023/01/23 10:08:03;;;;;;;1.00;1.00;;;;;;;;;;6184176;23;20764;-72
2023/01/23 10:10:52;;;;;;;0.70;0.70;;;;;;;;;;6184067;23;20388;-72
2023/01/23 10:13:23;;;;;;;0.60;0.60;;;;;;;;;;6185543;23;20402;-73
2023/01/23 10:16:04;;;;;;;1.10;1.00;;;;;;;;;;6185582;23;20451;-73
2023/01/23 10:18:34;;;;;;;0.70;0.60;;;;;;;;;;6184899;23;20387;-72
2023/01/23 10:21:06;;;;;;;0.70;0.70;;;;;;;;;;6185035;23;20436;-73
2023/01/23 10:23:48;;;;;;;0.60;0.60;;;;;;;;;;6185063;23;20404;-71
2023/01/23 10:26:17;;;;;;;1.67;1.57;;;;;;;;;;6185311;23;20389;-72
2023/01/23 10:28:46;;;;;;;0.70;0.60;;;;;;;;;;6185390;23;20858;-72
2023/01/23 10:31:20;;;;;;;0.70;0.70;;;;;;;;;;6185429;23;20444;-71
2023/01/23 10:34:13;;;;;;;0.80;0.80;;;;;;;;;;6185273;23;20460;-74
2023/01/23 10:36:45;;;;;;;0.67;0.60;;;;;;;;;;6185111;23;20410;-72
2023/01/23 10:39:25;;;;;;;0.70;0.60;;;;;;;;;;6184743;23;20431;-72
2023/01/23 10:42:31;;;;;;;0.70;0.60;;;;;;;;;;6184875;23;20694;-73
2023/01/23 10:44:59;;;;;;;0.70;0.60;;;;;;;;;;6185082;23;20418;-72
2023/01/23 10:47:29;;;;;;;0.70;0.70;;;;;;;;;;6185176;23;20702;-71
2023/01/23 10:50:14;;;;;;;0.70;0.60;;;;;;;;;;6208444;23;20782;-74
2023/01/23 10:52:42;;;;;;;0.67;0.60;;;;;;;;;;6183542;23;20469;-73
2023/01/23 10:55:24;;;;;;;0.70;0.70;;;;;;;;;;6183103;23;20379;-73
2023/01/23 10:57:52;;;;;;;0.70;0.70;;;;;;;;;;6176913;23;20408;-73
2023/01/23 11:00:25;;;;;;;0.70;0.60;;;;;;;;;;6183845;23;20830;-73
2023/01/23 11:02:51;;;;;;;0.70;0.60;;;;;;;;;;6184250;23;20404;-74
2023/01/23 11:05:34;;;;;;;0.80;0.80;;;;;;;;;;6184094;23;20443;-72
2023/01/23 11:08:24;;;;;;;0.70;0.60;;;;;;;;;;6183705;23;20469;-73
2023/01/23 11:10:50;;;;;;;0.70;0.60;;;;;;;;;;6183524;23;20542;-73
2023/01/23 11:13:24;;;;;;;0.60;0.60;;;;;;;;;;6183055;23;20420;-74
2023/01/23 11:15:52;;;;;;;0.70;0.60;;;;;;;;;;6184954;23;20382;-72
2023/01/23 11:18:30;;;;;;;1.63;1.53;;;;;;;;;;6184436;23;20390;-72
2023/01/23 11:20:58;;;;;;;0.70;0.60;;;;;;;;;;6183103;23;20405;-73
2023/01/23 11:23:26;;;;;;;0.70;0.60;;;;;;;;;;6184872;23;20429;-73
2023/01/23 11:25:53;;;;;;;0.70;0.70;;;;;;;;;;6184647;23;20420;-73
2023/01/23 11:28:23;;;;;;;0.70;0.70;;;;;;;;;;6184815;23;20692;-74
2023/01/23 11:30:55;;;;;;;0.70;0.70;;;;;;;;;;6184553;23;20382;-74
2023/01/23 11:33:40;;;;;;;0.70;0.60;;;;;;;;;;6182783;23;20512;-74
2023/01/23 11:36:13;;;;;;;0.70;0.70;;;;;;;;;;6184223;23;20374;-72
2023/01/23 11:38:43;;;;;;;0.70;0.70;;;;;;;;;;6184275;23;20473;-74
2023/01/23 11:41:18;;;;;;;0.70;0.60;;;;;;;;;;6184541;23;20405;-72
2023/01/23 11:43:47;;;;;;;0.70;0.60;;;;;;;;;;6208235;23;20413;-72
2023/01/23 11:46:26;;;;;;;0.70;0.60;;;;;;;;;;6184391;23;20413;-72
2023/01/23 11:49:10;;;;;;;0.70;0.60;;;;;;;;;;6158066;23;20481;-71
2023/01/23 11:51:42;;;;;;;0.60;0.60;;;;;;;;;;6181921;23;20425;-74
2023/01/23 11:54:17;;;;;;;0.70;0.60;;;;;;;;;;6181590;23;20452;-73
2023/01/23 11:56:51;;;;;;;1.63;1.53;;;;;;;;;;6184607;23;20386;-72
2023/01/23 11:59:31;;;;;;;0.70;0.60;;;;;;;;;;6184416;23;20967;-72
2023/01/23 12:02:19;;;;;;;0.60;0.60;;;;;;;;;;6184627;23;20690;-72
2023/01/23 12:04:57;;;;;;;0.70;0.70;;;;;;;;;;6134242;23;20456;-72
2023/01/23 12:07:25;;;;;;;0.67;0.60;;;;;;;;;;6182987;23;20409;-73
2023/01/23 12:10:01;;;;;;;0.70;0.70;;;;;;;;;;6183000;23;20845;-74
2023/01/23 12:12:46;;;;;;;0.80;0.80;;;;;;;;;;6184793;23;20449;-72
2023/01/23 12:15:19;;;;;;;0.70;0.60;;;;;;;;;;6184302;23;20378;-72
2023/01/23 12:17:50;;;;;;;0.90;0.90;;;;;;;;;;6183974;23;20715;-73
2023/01/23 12:20:27;;;;;;;0.70;0.70;;;;;;;;;;6182379;23;20491;-73
2023/01/23 12:23:00;;;;;;;0.70;0.70;;;;;;;;;;6184054;23;20384;-73
2023/01/23 12:25:50;;;;;;;0.70;0.60;;;;;;;;;;6184322;23;20427;-76
2023/01/23 12:28:27;;;;;;;0.70;0.60;;;;;;;;;;6182864;23;20378;-74
2023/01/23 12:31:06;;;;;;;0.70;0.60;;;;;;;;;;6183809;23;20380;-72
2023/01/23 12:33:40;;;;;;;0.70;0.60;;;;;;;;;;6184441;23;20385;-73
2023/01/23 12:36:29;;;;;;;4.20;1.90;;;;;;;;;;6184403;23;20889;-73
2023/01/23 12:39:04;;;;;;;0.70;0.70;;;;;;;;;;6175540;23;20727;-72
2023/01/23 12:41:35;;;;;;;0.70;0.60;;;;;;;;;;6182752;23;20393;-72
2023/01/23 12:44:05;;;;;;;0.70;0.70;;;;;;;;;;6183111;23;20432;-72
2023/01/23 12:46:35;;;;;;;0.70;0.60;;;;;;;;;;6184301;23;20421;-72
2023/01/23 12:49:08;;;;;;;0.70;0.70;;;;;;;;;;6183565;23;20473;-75
2023/01/23 12:51:36;;;;;;;0.70;0.60;;;;;;;;;;6157757;23;20409;-74
2023/01/23 12:54:09;;;;;;;0.73;0.70;;;;;;;;;;6184215;23;20388;-72
2023/01/23 12:56:38;;;;;;;0.70;0.70;;;;;;;;;;6157372;23;20528;-74
2023/01/23 12:59:10;;;;;;;0.70;0.70;;;;;;;;;;6182774;23;20374;-74
2023/01/23 13:01:45;;;;;;;0.70;0.70;;;;;;;;;;6157694;23;20397;-73
2023/01/23 13:04:18;;;;;;;0.67;0.60;;;;;;;;;;6184435;23;20432;-74
2023/01/23 13:06:55;;;;;;;1.67;1.07;;;;;;;;;;6184078;23;20408;-74
2023/01/23 13:09:27;;;;;;;0.70;0.60;;;;;;;;;;6183697;23;20378;-74
2023/01/23 13:12:03;;;;;;;0.70;0.70;;;;;;;;;;6182564;23;20410;-75
2023/01/23 13:14:41;;;;;;;0.70;0.60;;;;;;;;;;6184290;23;20380;-74
2023/01/23 13:17:33;;;;;;;0.70;0.60;;;;;;;;;;6183622;23;20843;-73
2023/01/23 13:23:24;;;;;;;1.83;1.13;;;;;;;;;;6182454;23;20418;-73
2023/01/23 13:26:27;;;;;;;0.63;0.60;;;;;;;;;;6183871;23;20437;-73
2023/01/23 13:29:31;;;;;;;0.70;0.70;;;;;;;;;;6183636;23;20377;-73
2023/01/23 13:32:18;;;;;;;0.70;0.70;;;;;;;;;;6183779;23;20460;-73
2023/01/23 13:34:45;;;;;;;0.70;0.60;;;;;;;;;;6185869;23;20778;-73
2023/01/23 13:37:32;;;;;;;0.70;0.70;;;;;;;;;;6209133;23;20393;-73
2023/01/23 13:40:12;;;;;;;0.70;0.70;;;;;;;;;;6186102;23;20374;-73
2023/01/23 13:42:41;;;;;;;0.70;0.60;;;;;;;;;;6184249;23;20429;-74
2023/01/23 13:45:29;;;;;;;0.70;0.60;;;;;;;;;;6184633;23;20420;-74
2023/01/23 13:51:22;;;;;;;0.70;0.60;;;;;;;;;;6065721;23;20722;-73
2023/01/23 13:57:13;;;;;;;0.70;0.60;;;;;;;;;;5924586;24;20610;-73
2023/01/23 13:59:59;;;;;;;0.70;0.60;;;;;;;;;;5843791;24;20731;-72
2023/01/23 14:05:42;;;;;;;0.70;0.60;;;;;;;;;;5759843;24;20454;-75
2023/01/23 14:08:22;;;;;;;0.70;0.60;;;;;;;;;;5744963;24;20446;-73
2023/01/23 14:11:06;;;;;;;0.70;0.70;;;;;;;;;;5746241;24;20399;-74
2023/01/23 14:13:48;;;;;;;0.60;0.60;;;;;;;;;;5744432;24;20410;-72
2023/01/23 14:16:30;;;;;;;0.70;0.60;;;;;;;;;;5786019;24;20902;-71
2023/01/23 14:19:20;;;;;;;0.70;0.60;;;;;;;;;;5804957;24;20436;-74
2023/01/23 14:22:03;;;;;;;0.70;0.60;;;;;;;;;;5817055;24;20449;-72
2023/01/23 14:24:39;;;;;;;2.07;0.97;;;;;;;;;;5888873;24;20484;-74
2023/01/23 14:27:08;;;;;;;0.70;0.60;;;;;;;;;;5936681;24;20532;-74
2023/01/23 14:29:37;;;;;;;0.70;0.60;;;;;;;;;;5960039;24;20444;-72
2023/01/23 14:32:29;;;;;;;0.70;0.60;;;;;;;;;;5980211;24;20383;-73
2023/01/23 14:34:56;;;;;;;0.90;0.90;;;;;;;;;;5980054;24;20439;-74
2023/01/23 14:37:24;;;;;;;0.70;0.70;;;;;;;;;;5979485;24;20439;-73
2023/01/23 14:39:51;;;;;;;0.70;0.70;;;;;;;;;;5979760;24;20898;-75
2023/01/23 14:42:23;;;;;;;0.70;0.60;;;;;;;;;;5980274;24;20412;-74
2023/01/23 14:44:51;;;;;;;0.70;0.60;;;;;;;;;;6035904;23;20447;-74
2023/01/23 14:47:22;;;;;;;0.70;0.70;;;;;;;;;;6139031;23;20435;-74
2023/01/23 14:49:51;;;;;;;0.80;0.80;;;;;;;;;;6155486;23;20410;-74
2023/01/23 14:52:21;;;;;;;1.30;1.20;;;;;;;;;;6129204;23;20811;-74
2023/01/23 14:54:48;;;;;;;0.70;0.70;;;;;;;;;;6155329;23;20386;-74
2023/01/23 14:57:21;;;;;;;0.70;0.70;;;;;;;;;;6153603;23;20805;-75
2023/01/23 14:59:49;;;;;;;0.70;0.70;;;;;;;;;;6129249;23;20460;-74
2023/01/23 15:02:24;;;;;;;1.57;1.47;;;;;;;;;;6153829;23;20417;-73
2023/01/23 15:05:09;;;;;;;0.80;0.80;;;;;;;;;;6169420;23;20432;-72
2023/01/23 15:07:41;;;;;;;0.70;0.67;;;;;;;;;;6184627;23;20393;-73
2023/01/23 15:10:12;;;;;;;0.70;0.70;;;;;;;;;;6183629;23;20382;-73
2023/01/23 15:12:45;;;;;;;0.70;0.70;;;;;;;;;;6185302;23;20680;-73
2023/01/23 15:15:16;;;;;;;0.70;0.60;;;;;;;;;;6183533;23;20373;-73
2023/01/23 15:17:44;;;;;;;0.70;0.70;;;;;;;;;;6183057;23;20413;-73
2023/01/23 15:23:19;;;;;;;1.83;1.73;;;;;;;;;;5098249;27;20635;-72
2023/01/23 15:25:47;;;;;;;0.70;0.67;;;;;;;;;;5078866;28;20479;-73
2023/01/23 15:28:31;;;;;;;0.70;0.60;;;;;;;;;;5090123;28;20481;-72
2023/01/23 15:30:58;;;;;;;0.80;0.80;;;;;;;;;;5096353;28;20435;-72
2023/01/23 15:33:27;;;;;;;0.70;0.70;;;;;;;;;;5079478;28;20541;-73
2023/01/23 15:36:01;;;;;;;0.70;0.60;;;;;;;;;;5101385;28;20453;-73
2023/01/23 15:38:29;;;;;;;1.77;1.10;;;;;;;;;;5072429;28;20451;-73